Bei Facebook empfehlenBei Twitter postenGoogle plusPinterest

Das Wetter im Erzgebirge am 07.10.2015

Wetter und Klima am 07.10.2015 Holzhau im Erzgebirge (630m ü.NN)
Letzte gemessene Temperatur und Uhrzeit der Messung23:45:00 Uhr11.80 °C
Temperatur (Maximum / Höchstwert) und Uhrzeit der Messung16:15:00 Uhr13.70 °C
Temperatur (Minimum / Tiefstwert) und Uhrzeit der Messung07:30:0011.40 °C
Errechneter Absolutwert der Temperaturschwankungen zwischen Tmin und Tmax des Tages2.30 K
Errechnete Tagesmitteltemperatur12.12500 °C
Gesamt - Niederschlag des Tages (in flüssiger Form)29.01 Liter / m²
Luftdruck (Maximum / Höchstwert) und Zeitpunkt der Messung23:30:00 Uhr1012.50 hPa
Luftdruck (Minimum / Tiefstwert) und Zeitpunkt der Messung03:15:00 Uhr1006.80 hPa
Errechneter Absolutwert der Luftdruckschwankungen des Tages5.70 hPa
Höchste gemessene Windgeschwindigkeit und Uhrzeit der Messung00:30:00 Uhr6.12 km/h
Errechnete Windhäufigkeit in Relation zu den Messwerten des Tages7.29167 %
Niedrigste Windkühle (Windchill) und Zeitpunkt der Messung00:30:00 Uhr11.20 °C
Taupunkt (Maximum / Höchstwert) und Uhrzeit der Messung16:15:00 Uhr12.90 °C
Taupunkt (Minimum / Tiefstwert) und Uhrzeit der Messung01:15:0010.00 °C
Anzahl der automatisch eingelesenen Messwerte 96

Detaillierte Wetter- und Klima- Messwerte für den 07.10.2015 in Holzhau im Erzgebirge (630m ü.NN)
ZeitTemperaturLuftdruckRel. LuftfeuchteWindWindrichtungWindchillTaupunktNiederschlag l/m²
23:45:0011.80 °C1012.40 hPa95.00 %11.00 °C29.01
23:30:0011.70 °C1012.50 hPa95.00 %10.90 °C28.49
23:15:0011.60 °C1012.40 hPa95.00 %10.80 °C28.49
23:00:0011.70 °C1012.30 hPa95.00 %10.90 °C28.49
22:45:0011.80 °C1012.40 hPa95.00 %11.00 °C28.49
22:30:0011.80 °C1012.30 hPa95.00 %11.00 °C28.49
22:15:0011.80 °C1012.30 hPa95.00 %11.00 °C27.97
22:00:0011.80 °C1012.20 hPa95.00 %11.00 °C27.45
21:45:0011.80 °C1012.20 hPa95.00 %11.00 °C25.90
21:30:0011.80 °C1012.20 hPa95.00 %11.00 °C25.38
21:15:0011.80 °C1012.10 hPa95.00 %11.00 °C25.38
21:00:0011.90 °C1011.90 hPa95.00 %11.10 °C25.38
20:45:0011.80 °C1011.80 hPa95.00 %11.00 °C24.86
20:30:0011.80 °C1011.90 hPa95.00 %11.00 °C24.86
20:15:0011.80 °C1011.70 hPa95.00 %11.00 °C24.86
20:00:0011.80 °C1011.70 hPa95.00 %11.00 °C24.86
19:45:0011.80 °C1011.60 hPa95.00 %11.00 °C24.35
19:30:0011.90 °C1011.60 hPa95.00 %11.10 °C24.35
19:15:0011.90 °C1011.50 hPa95.00 %11.10 °C24.35
19:00:0011.90 °C1011.50 hPa95.00 %11.10 °C23.83
18:45:0012.10 °C1011.40 hPa95.00 %11.30 °C23.83
18:30:0012.20 °C1011.40 hPa95.00 %11.40 °C23.83
18:15:0012.30 °C1011.20 hPa94.00 %11.40 °C23.31
18:00:0012.40 °C1011.10 hPa94.00 %11.50 °C23.31
17:45:0012.60 °C1010.90 hPa95.00 %11.80 °C23.31
17:30:0012.60 °C1011.10 hPa95.00 %11.80 °C23.31
17:15:0012.80 °C1010.80 hPa95.00 %12.00 °C22.79
17:00:0012.90 °C1010.70 hPa95.00 %12.10 °C22.79
16:45:0013.10 °C1010.60 hPa95.00 %12.30 °C22.79
16:30:0013.40 °C1010.30 hPa95.00 %12.60 °C22.79
16:15:0013.70 °C1010.30 hPa95.00 %12.90 °C22.79
16:00:0013.60 °C1010.30 hPa95.00 %12.80 °C22.79
15:45:0013.50 °C1010.20 hPa95.00 %12.70 °C22.79
15:30:0013.40 °C1010.30 hPa95.00 %12.60 °C22.79
15:15:0013.20 °C1010.20 hPa95.00 %2.88 km/hSO13.20 °C12.40 °C22.79
15:00:0013.10 °C1010.20 hPa95.00 %12.30 °C22.79
14:45:0013.00 °C1010.40 hPa95.00 %12.20 °C22.79
14:30:0013.30 °C1010.30 hPa95.00 %12.50 °C22.79
14:15:0013.10 °C1010.40 hPa95.00 %12.30 °C22.27
14:00:0012.90 °C1010.10 hPa95.00 %12.10 °C21.76
13:45:0012.90 °C1010.20 hPa95.00 %12.10 °C21.76
13:30:0012.80 °C1010.10 hPa95.00 %12.00 °C21.24
13:15:0012.90 °C1010.10 hPa95.00 %12.10 °C20.72
13:00:0013.00 °C1010.00 hPa95.00 %12.20 °C20.72
12:45:0012.90 °C1010.00 hPa95.00 %12.10 °C20.20
12:30:0013.20 °C1009.80 hPa95.00 %12.40 °C19.68
12:15:0013.20 °C1009.80 hPa95.00 %12.40 °C18.65
12:00:0013.30 °C1009.70 hPa95.00 %4.68 km/hSO13.30 °C12.50 °C18.65
11:45:0012.90 °C1009.60 hPa95.00 %12.10 °C18.65
11:30:0012.90 °C1009.70 hPa95.00 %2.88 km/hSSO12.90 °C12.10 °C18.13
11:15:0012.80 °C1009.60 hPa95.00 %12.00 °C18.13
11:00:0012.70 °C1009.60 hPa95.00 %11.90 °C17.61
10:45:0012.60 °C1009.40 hPa95.00 %11.80 °C17.61
10:30:0012.30 °C1009.20 hPa95.00 %11.50 °C17.61
10:15:0012.30 °C1009.10 hPa95.00 %11.50 °C17.61
10:00:0012.10 °C1008.90 hPa95.00 %11.30 °C17.09
09:45:0012.10 °C1008.70 hPa95.00 %11.30 °C17.09
09:30:0011.90 °C1008.50 hPa95.00 %11.10 °C17.09
09:15:0011.80 °C1008.20 hPa95.00 %11.00 °C17.09
09:00:0011.60 °C1008.20 hPa95.00 %10.80 °C16.58
08:45:0011.60 °C1008.00 hPa95.00 %10.80 °C16.58
08:30:0011.60 °C1007.90 hPa94.00 %10.70 °C16.06
08:15:0011.60 °C1007.80 hPa94.00 %10.70 °C16.06
08:00:0011.60 °C1007.90 hPa94.00 %10.70 °C15.54
07:45:0011.50 °C1007.70 hPa94.00 %10.60 °C15.54
07:30:0011.40 °C1007.60 hPa94.00 %10.50 °C15.54
07:15:0011.40 °C1007.60 hPa94.00 %10.50 °C15.54
07:00:0011.40 °C1007.40 hPa94.00 %10.50 °C15.54
06:45:0011.40 °C1007.30 hPa94.00 %10.50 °C15.54
06:30:0011.40 °C1007.30 hPa94.00 %10.50 °C15.02
06:15:0011.40 °C1007.20 hPa94.00 %10.50 °C15.02
06:00:0011.40 °C1007.30 hPa94.00 %10.50 °C14.50
05:45:0011.40 °C1007.40 hPa94.00 %10.50 °C13.99
05:30:0011.40 °C1007.20 hPa94.00 %10.50 °C13.47
05:15:0011.50 °C1007.40 hPa94.00 %10.60 °C12.43
05:00:0011.40 °C1007.20 hPa93.00 %10.30 °C10.88
04:45:0011.40 °C1007.20 hPa93.00 %10.30 °C7.77
04:30:0011.40 °C1007.30 hPa93.00 %10.30 °C6.22
04:15:0011.50 °C1007.40 hPa93.00 %10.40 °C5.18
04:00:0011.50 °C1007.10 hPa93.00 %10.40 °C4.14
03:45:0011.60 °C1006.90 hPa92.00 %10.30 °C1.04
03:30:0011.80 °C1007.00 hPa92.00 %10.50 °C0.52
03:15:0012.00 °C1006.80 hPa92.00 %1.44 km/hSO12.00 °C10.70 °C 
03:00:0012.10 °C1006.90 hPa92.00 %1.80 km/hSSO12.10 °C10.80 °C 
02:45:0012.10 °C1006.90 hPa92.00 %10.80 °C 
02:30:0012.10 °C1007.00 hPa92.00 %10.80 °C 
02:15:0011.90 °C1007.10 hPa92.00 %10.60 °C 
02:00:0011.80 °C1006.90 hPa92.00 %10.50 °C 
01:45:0011.60 °C1007.00 hPa92.00 %3.24 km/hOSO11.60 °C10.30 °C 
01:30:0011.50 °C1006.90 hPa91.00 %10.10 °C 
01:15:0011.40 °C1006.90 hPa91.00 %10.00 °C 
01:00:0011.40 °C1006.80 hPa91.00 %10.00 °C 
00:45:0011.40 °C1007.00 hPa91.00 %10.00 °C 
00:30:0011.50 °C1006.90 hPa91.00 %6.12 km/hOSO11.20 °C10.10 °C 
00:15:0011.60 °C1006.80 hPa91.00 %10.20 °C 
00:00:0011.60 °C1007.00 hPa91.00 %10.20 °C 

Permanenter Link zu dieser Seite: Wetter im Erzgebirge am 07.10.2015
Performance-Info: Die Erstellung der Seite / Statistik(en) / Tabelle(n) erforderte 5 Datenbankserver-Abfrage(n) und dauerte 101 Millisekunden. (Dieser Messwert ist von der Gesamt-Auslastung des Servers abhängig.)
Erzgebirge - Wetter | Erzgebirge - Wetter (Mobilgeräte) | Komplette Klimadatenbank